createdAt,value
2023-04-28T00:00:40.585Z,7.33
2023-04-28T00:03:08.789Z,8.03
2023-04-28T00:05:38.367Z,7.77
2023-04-28T00:08:06.707Z,7.87
2023-04-28T00:10:34.818Z,7.90
2023-04-28T00:13:03.537Z,8.03
2023-04-28T00:15:31.806Z,7.60
2023-04-28T00:17:59.803Z,8.30
2023-04-28T00:20:27.839Z,8.83
2023-04-28T00:22:57.164Z,8.87
2023-04-28T00:25:25.318Z,8.20
2023-04-28T00:27:53.256Z,9.20
2023-04-28T00:30:21.418Z,8.47
2023-04-28T00:32:49.420Z,9.33
2023-04-28T00:35:17.732Z,9.10
2023-04-28T00:37:45.793Z,8.50
2023-04-28T00:40:15.434Z,8.33
2023-04-28T00:42:43.461Z,8.63
2023-04-28T00:45:11.966Z,8.90
2023-04-28T00:47:40.016Z,8.17
2023-04-28T00:50:10.498Z,8.63
2023-04-28T00:52:39.746Z,8.97
2023-04-28T00:55:10.134Z,8.77
2023-04-28T00:57:39.497Z,8.27
2023-04-28T01:00:08.964Z,8.80
2023-04-28T01:02:37.539Z,9.17
2023-04-28T01:05:06.120Z,8.37
2023-04-28T01:07:34.923Z,8.77
2023-04-28T01:10:03.673Z,8.57
2023-04-28T01:12:32.109Z,8.27
2023-04-28T01:15:02.787Z,8.33
2023-04-28T01:17:30.894Z,8.17
2023-04-28T01:19:58.964Z,8.03
2023-04-28T01:22:27.128Z,8.67
2023-04-28T01:24:56.476Z,8.53
2023-04-28T01:27:24.984Z,8.93
2023-04-28T01:29:53.023Z,8.57
2023-04-28T01:32:21.019Z,9.17
2023-04-28T01:34:48.995Z,8.27
2023-04-28T01:37:17.072Z,8.63
2023-04-28T01:39:45.133Z,8.77
2023-04-28T01:42:14.528Z,8.60
2023-04-28T01:44:42.644Z,8.37
2023-04-28T01:47:10.618Z,8.47
2023-04-28T01:49:38.573Z,8.70
2023-04-28T01:52:06.862Z,8.23
2023-04-28T01:54:34.874Z,7.87
2023-04-28T01:57:03.384Z,8.30
2023-04-28T01:59:32.905Z,7.77
2023-04-28T02:02:01.050Z,7.67
2023-04-28T02:04:29.138Z,8.13
2023-04-28T02:06:57.138Z,8.07
2023-04-28T02:09:25.157Z,8.47
2023-04-28T02:11:53.129Z,8.53
2023-04-28T02:14:21.126Z,8.77
2023-04-28T02:16:50.607Z,9.20
2023-04-28T02:19:18.592Z,9.43
2023-04-28T02:21:46.594Z,8.67
2023-04-28T02:24:14.782Z,9.03
2023-04-28T02:26:43.053Z,9.33
2023-04-28T02:29:11.037Z,9.90
2023-04-28T02:31:39.075Z,9.23
2023-04-28T02:34:08.455Z,9.87
2023-04-28T02:36:36.811Z,8.77
2023-04-28T02:39:04.954Z,9.00
2023-04-28T02:41:34.619Z,8.80
2023-04-28T02:44:02.645Z,8.50
2023-04-28T02:46:30.697Z,8.67
2023-04-28T02:48:58.708Z,8.10
2023-04-28T02:51:28.633Z,9.00
2023-04-28T02:53:56.676Z,8.63
2023-04-28T02:56:24.678Z,8.63
2023-04-28T02:58:52.720Z,8.67
2023-04-28T03:01:20.763Z,8.40
2023-04-28T03:03:48.917Z,8.17
2023-04-28T03:06:17.046Z,8.50
2023-04-28T03:08:46.455Z,8.67
2023-04-28T03:11:14.513Z,8.10
2023-04-28T03:13:42.575Z,8.63
2023-04-28T03:16:10.654Z,9.00
2023-04-28T03:18:38.649Z,9.00
2023-04-28T03:21:06.790Z,8.70
2023-04-28T03:23:34.770Z,8.07
2023-04-28T03:26:04.183Z,9.10
2023-04-28T03:28:32.230Z,9.17
2023-04-28T03:31:00.487Z,10.43
2023-04-28T03:33:28.451Z,10.80
2023-04-28T03:35:56.436Z,10.33
2023-04-28T03:38:24.458Z,11.27
2023-04-28T03:40:52.464Z,11.10
2023-04-28T03:43:21.846Z,11.23
2023-04-28T03:45:50.064Z,10.90
2023-04-28T03:48:18.147Z,11.93
2023-04-28T03:50:46.449Z,11.63
2023-04-28T03:53:14.493Z,11.40
2023-04-28T03:55:42.490Z,11.90
2023-04-28T03:58:10.726Z,12.37
2023-04-28T04:00:40.074Z,11.90
2023-04-28T04:03:08.242Z,12.30
2023-04-28T04:05:36.555Z,12.43
2023-04-28T04:08:05.998Z,12.10
2023-04-28T04:10:34.001Z,12.23
2023-04-28T04:13:01.993Z,12.13
2023-04-28T04:15:30.027Z,12.63
2023-04-28T04:17:59.506Z,12.37
2023-04-28T04:20:27.555Z,13.43
2023-04-28T04:22:55.594Z,12.77
2023-04-28T04:25:23.621Z,12.67
2023-04-28T04:27:51.624Z,11.87
2023-04-28T04:30:19.718Z,13.90
2023-04-28T04:32:47.735Z,12.57
2023-04-28T04:35:17.425Z,13.00
2023-04-28T04:37:45.424Z,12.80
2023-04-28T04:40:13.866Z,13.73
2023-04-28T04:42:41.889Z,13.63
2023-04-28T04:45:10.808Z,12.70
2023-04-28T04:47:38.823Z,12.80
2023-04-28T04:50:08.029Z,12.60
2023-04-28T04:52:37.360Z,12.40
2023-04-28T04:55:06.040Z,12.57
2023-04-28T04:57:34.055Z,13.23
2023-04-28T05:00:02.041Z,13.50
2023-04-28T05:02:30.163Z,12.93
2023-04-28T05:05:07.979Z,13.30
2023-04-28T05:07:37.905Z,12.13
2023-04-28T05:10:08.579Z,13.43
2023-04-28T05:12:36.558Z,12.80
2023-04-28T05:15:04.784Z,12.93
2023-04-28T05:17:32.849Z,12.70
2023-04-28T05:20:01.001Z,12.37
2023-04-28T05:22:29.005Z,12.20
2023-04-28T05:24:58.374Z,11.93
2023-04-28T05:27:26.393Z,11.33
2023-04-28T05:29:54.394Z,11.77
2023-04-28T05:32:22.716Z,11.67
2023-04-28T05:34:51.246Z,11.33
2023-04-28T05:37:19.217Z,11.13
2023-04-28T05:39:47.194Z,11.80
2023-04-28T05:42:16.558Z,11.17
2023-04-28T05:44:44.558Z,11.13
2023-04-28T05:47:12.601Z,10.40
2023-04-28T05:49:40.589Z,10.87
2023-04-28T05:52:08.552Z,10.23
2023-04-28T05:54:36.563Z,10.27
2023-04-28T05:57:04.719Z,10.70
2023-04-28T05:59:34.119Z,9.70
2023-04-28T06:02:02.166Z,10.43
2023-04-28T06:04:30.503Z,10.23
2023-04-28T06:06:58.790Z,9.27
2023-04-28T06:09:26.884Z,9.60
2023-04-28T06:11:54.888Z,8.83
2023-04-28T06:14:23.858Z,8.93
2023-04-28T06:16:53.418Z,8.33
2023-04-28T06:19:21.607Z,8.50
2023-04-28T06:21:50.392Z,8.20
2023-04-28T06:24:18.545Z,8.33
2023-04-28T06:26:47.232Z,7.53
2023-04-28T06:29:15.298Z,8.00
2023-04-28T06:31:45.619Z,7.60
2023-04-28T06:34:15.540Z,8.07
2023-04-28T06:36:43.979Z,7.93
2023-04-28T06:39:12.037Z,7.77
2023-04-28T06:41:40.100Z,7.50
2023-04-28T06:44:08.185Z,6.93
2023-04-28T06:46:37.525Z,6.60
2023-04-28T06:49:05.611Z,7.43
2023-04-28T06:51:34.984Z,7.57
2023-04-28T06:54:02.988Z,7.23
2023-04-28T06:56:31.085Z,7.90
2023-04-28T06:58:59.106Z,7.13
2023-04-28T07:01:27.176Z,6.90
2023-04-28T07:03:55.768Z,6.93
2023-04-28T07:06:23.901Z,7.63
2023-04-28T07:08:53.290Z,7.07
2023-04-28T07:11:21.306Z,6.53
2023-04-28T07:13:51.548Z,6.33
2023-04-28T07:16:19.668Z,6.27
2023-04-28T07:18:47.716Z,6.30
2023-04-28T07:21:15.903Z,5.97
2023-04-28T07:23:43.880Z,5.43
2023-04-28T07:26:16.310Z,5.37
2023-04-28T07:28:45.228Z,5.10
2023-04-28T07:31:13.249Z,5.40
2023-04-28T07:33:41.421Z,4.73
2023-04-28T07:36:09.509Z,4.70
2023-04-28T07:38:37.724Z,4.60
2023-04-28T07:41:09.984Z,4.73
2023-04-28T07:43:40.982Z,4.50
2023-04-28T07:46:09.956Z,4.00
2023-04-28T07:48:38.116Z,3.80
2023-04-28T07:51:06.199Z,3.70
2023-04-28T07:53:34.515Z,4.00
2023-04-28T07:56:02.539Z,3.53
2023-04-28T07:58:30.856Z,3.73
2023-04-28T08:01:00.205Z,4.10
2023-04-28T08:03:28.403Z,3.50
2023-04-28T08:05:56.816Z,3.20
2023-04-28T08:08:25.346Z,3.27
2023-04-28T08:10:54.379Z,3.47
2023-04-28T08:13:22.407Z,3.30
2023-04-28T08:15:50.824Z,3.43
2023-04-28T08:18:20.325Z,3.70
2023-04-28T08:20:48.375Z,3.73
2023-04-28T08:23:16.480Z,3.40
2023-04-28T08:25:44.638Z,3.13
2023-04-28T08:28:12.644Z,4.00
2023-04-28T08:30:40.812Z,3.70
2023-04-28T08:33:08.868Z,3.30
2023-04-28T08:35:38.297Z,3.33
2023-04-28T08:38:07.120Z,3.40
2023-04-28T08:40:35.135Z,3.83
2023-04-28T08:43:03.138Z,3.37
2023-04-28T08:45:32.166Z,3.17
2023-04-28T08:48:00.936Z,3.60
2023-04-28T08:50:32.663Z,3.50
2023-04-28T08:53:05.472Z,3.43
2023-04-28T08:55:34.451Z,3.23
2023-04-28T08:58:03.832Z,3.10
2023-04-28T09:00:32.565Z,3.40
2023-04-28T09:03:00.755Z,3.23
2023-04-28T09:05:28.931Z,3.50
2023-04-28T09:07:56.987Z,3.27
2023-04-28T09:10:27.494Z,3.73
2023-04-28T09:12:58.006Z,4.03
2023-04-28T09:15:33.244Z,3.50
2023-04-28T09:18:02.768Z,3.83
2023-04-28T09:20:31.948Z,4.30
2023-04-28T09:23:14.936Z,3.57
2023-04-28T09:25:57.485Z,4.13
2023-04-28T09:28:25.822Z,4.40
2023-04-28T09:30:53.900Z,4.40
2023-04-28T09:33:22.476Z,4.00
2023-04-28T09:35:51.309Z,4.20
2023-04-28T09:38:20.888Z,4.40
2023-04-28T09:40:59.039Z,4.10
2023-04-28T09:43:31.707Z,4.30
2023-04-28T09:46:01.233Z,3.73
2023-04-28T09:48:31.910Z,4.17
2023-04-28T09:51:00.983Z,4.10
2023-04-28T09:53:29.639Z,4.17
2023-04-28T09:56:01.081Z,4.33
2023-04-28T09:58:30.321Z,4.50
2023-04-28T10:01:00.474Z,4.47
2023-04-28T10:03:30.382Z,3.93
2023-04-28T10:05:59.997Z,4.13
2023-04-28T10:08:28.526Z,4.03
2023-04-28T10:10:58.869Z,4.10
2023-04-28T10:13:27.029Z,4.50
2023-04-28T10:15:56.126Z,4.20
2023-04-28T10:18:24.921Z,4.60
2023-04-28T10:20:58.249Z,4.50
2023-04-28T10:24:01.589Z,4.63
2023-04-28T10:27:06.219Z,4.70
2023-04-28T10:29:35.546Z,4.50
2023-04-28T10:32:23.620Z,4.57
2023-04-28T10:34:51.811Z,4.73
2023-04-28T10:37:20.058Z,4.17
2023-04-28T10:40:25.370Z,4.53
2023-04-28T10:42:57.250Z,4.63
2023-04-28T10:46:04.963Z,4.40
2023-04-28T10:48:56.329Z,5.03
2023-04-28T10:51:34.347Z,4.33
2023-04-28T10:54:19.416Z,4.90
2023-04-28T10:57:22.917Z,4.40
2023-04-28T10:59:52.656Z,4.70
2023-04-28T11:02:44.502Z,4.50
2023-04-28T11:05:18.912Z,4.27
2023-04-28T11:08:30.274Z,5.10
2023-04-28T11:11:20.736Z,5.07
2023-04-28T11:13:49.900Z,5.33
2023-04-28T11:16:21.367Z,4.90
2023-04-28T11:19:05.453Z,5.37
2023-04-28T11:21:34.476Z,4.97
2023-04-28T11:24:09.450Z,4.63
2023-04-28T11:26:39.286Z,4.80
2023-04-28T11:29:07.287Z,4.70
2023-04-28T11:31:36.772Z,4.57
2023-04-28T11:34:07.182Z,5.03
2023-04-28T11:36:37.118Z,5.13
2023-04-28T11:39:08.791Z,5.20
2023-04-28T11:41:37.397Z,4.83
2023-04-28T11:44:13.500Z,4.80
2023-04-28T11:46:51.524Z,5.30
2023-04-28T11:49:20.538Z,5.13
2023-04-28T11:51:50.041Z,5.10
2023-04-28T11:54:22.958Z,4.87
2023-04-28T11:56:51.677Z,5.00
2023-04-28T11:59:21.200Z,4.83
2023-04-28T12:01:52.861Z,4.97
2023-04-28T12:04:32.302Z,4.80
2023-04-28T12:07:04.805Z,5.00
2023-04-28T12:09:33.503Z,5.20
2023-04-28T12:12:04.618Z,5.20
2023-04-28T12:14:35.491Z,5.07
2023-04-28T12:17:05.244Z,4.80
2023-04-28T12:19:45.719Z,5.07
2023-04-28T12:22:17.455Z,5.03
2023-04-28T12:24:46.150Z,5.30
2023-04-28T12:27:22.068Z,4.87
2023-04-28T12:29:50.996Z,4.77
2023-04-28T12:32:20.604Z,4.80
2023-04-28T12:34:50.683Z,5.47
2023-04-28T12:37:19.065Z,5.07
2023-04-28T12:39:47.251Z,5.10
2023-04-28T12:42:15.464Z,5.40
2023-04-28T12:44:43.487Z,5.20
2023-04-28T12:47:12.064Z,5.00
2023-04-28T12:49:41.702Z,5.73
2023-04-28T12:52:09.852Z,5.17
2023-04-28T12:54:37.960Z,5.03
2023-04-28T12:57:06.570Z,5.90
2023-04-28T12:59:34.706Z,5.70
2023-04-28T13:02:02.978Z,5.93
2023-04-28T13:04:32.766Z,5.37
2023-04-28T13:07:02.723Z,5.80
2023-04-28T13:09:30.786Z,4.47
2023-04-28T13:11:59.301Z,5.73
2023-04-28T13:14:28.042Z,5.93
2023-04-28T13:16:56.246Z,5.37
2023-04-28T13:19:24.373Z,5.13
2023-04-28T13:21:52.657Z,5.43
2023-04-28T13:24:22.055Z,4.83
2023-04-28T13:26:50.184Z,4.70
2023-04-28T13:29:18.180Z,5.17
2023-04-28T13:31:46.439Z,5.00
2023-04-28T13:34:16.399Z,5.00
2023-04-28T13:36:44.805Z,4.97
2023-04-28T13:39:14.704Z,4.77
2023-04-28T13:41:44.347Z,5.07
2023-04-28T13:44:12.361Z,4.73
2023-04-28T13:46:41.036Z,5.60
2023-04-28T13:49:09.096Z,5.00
2023-04-28T13:51:37.230Z,5.33
2023-04-28T13:54:08.259Z,4.90
2023-04-28T13:56:37.481Z,5.40
2023-04-28T13:59:07.340Z,5.33
2023-04-28T14:01:35.728Z,5.70
2023-04-28T14:04:04.321Z,5.57
2023-04-28T14:06:34.665Z,5.10
2023-04-28T14:09:03.575Z,5.97
2023-04-28T14:11:31.753Z,5.17
2023-04-28T14:13:59.745Z,5.80
2023-04-28T14:16:30.415Z,5.80
2023-04-28T14:18:59.776Z,5.77
2023-04-28T14:21:28.403Z,6.40
2023-04-28T14:23:56.437Z,6.63
2023-04-28T14:26:25.369Z,6.43
2023-04-28T14:28:53.696Z,6.60
2023-04-28T14:31:21.716Z,7.03
2023-04-28T14:33:51.090Z,7.40
2023-04-28T14:36:19.128Z,6.73
2023-04-28T14:38:47.302Z,6.60
2023-04-28T14:41:15.286Z,6.37
2023-04-28T14:43:43.398Z,7.30
2023-04-28T14:46:12.709Z,7.10
2023-04-28T14:48:40.792Z,7.60
2023-04-28T14:51:10.708Z,7.17
2023-04-28T14:53:38.754Z,6.60
2023-04-28T14:56:18.100Z,6.77
2023-04-28T14:58:50.447Z,6.80
2023-04-28T15:01:19.199Z,6.27
2023-04-28T15:03:47.438Z,6.80
2023-04-28T15:06:16.977Z,7.20
2023-04-28T15:08:44.971Z,7.37
2023-04-28T15:11:13.004Z,6.87
2023-04-28T15:13:43.006Z,6.87
2023-04-28T15:16:11.199Z,7.20
2023-04-28T15:18:39.433Z,7.03
2023-04-28T15:21:08.598Z,7.07
2023-04-28T15:23:38.002Z,7.13
2023-04-28T15:26:06.700Z,7.40
2023-04-28T15:28:35.239Z,7.40
2023-04-28T15:31:04.923Z,6.77
2023-04-28T15:33:33.612Z,7.10
2023-04-28T15:36:01.641Z,7.13
2023-04-28T15:38:31.714Z,7.10
2023-04-28T15:41:01.099Z,6.57
2023-04-28T15:43:29.228Z,6.67
2023-04-28T15:45:57.734Z,7.00
2023-04-28T15:48:26.383Z,6.80
2023-04-28T15:50:54.382Z,6.30
2023-04-28T15:53:22.673Z,6.33
2023-04-28T15:55:50.682Z,6.20
2023-04-28T15:58:20.800Z,7.17
2023-04-28T16:00:48.813Z,6.03
2023-04-28T16:03:16.954Z,6.77
2023-04-28T16:05:45.664Z,6.53
2023-04-28T16:08:13.713Z,7.47
2023-04-28T16:10:42.483Z,6.77
2023-04-28T16:13:12.274Z,7.00
2023-04-28T16:15:42.091Z,7.13
2023-04-28T16:18:10.376Z,7.37
2023-04-28T16:20:38.975Z,7.37
2023-04-28T16:23:07.556Z,7.37
2023-04-28T16:25:35.920Z,7.57
2023-04-28T16:28:03.935Z,7.90
2023-04-28T16:30:32.655Z,7.37
2023-04-28T16:33:02.018Z,7.77
2023-04-28T16:35:30.125Z,7.80
2023-04-28T16:37:58.114Z,7.73
2023-04-28T16:40:26.262Z,8.00
2023-04-28T16:42:54.265Z,7.77
2023-04-28T16:45:23.599Z,8.03
2023-04-28T16:47:51.755Z,8.00
2023-04-28T16:50:21.196Z,8.33
2023-04-28T16:52:49.481Z,8.13
2023-04-28T16:55:18.814Z,8.73
2023-04-28T16:57:46.849Z,8.77
2023-04-28T17:00:15.903Z,8.03
2023-04-28T17:02:44.058Z,9.23
2023-04-28T17:05:12.410Z,8.90
2023-04-28T17:07:41.864Z,9.20
2023-04-28T17:10:11.025Z,8.87
2023-04-28T17:12:39.488Z,9.50
2023-04-28T17:15:09.375Z,9.57
2023-04-28T17:17:37.567Z,9.27
2023-04-28T17:20:07.014Z,9.80
2023-04-28T17:22:35.578Z,10.17
2023-04-28T17:25:05.663Z,8.93
2023-04-28T17:27:33.662Z,9.97
2023-04-28T17:30:01.651Z,10.13
2023-04-28T17:32:30.928Z,10.73
2023-04-28T17:34:59.062Z,10.13
2023-04-28T17:37:27.158Z,9.97
2023-04-28T17:39:55.127Z,9.70
2023-04-28T17:42:24.845Z,9.37
2023-04-28T17:44:53.462Z,10.23
2023-04-28T17:47:21.529Z,9.60
2023-04-28T17:49:49.527Z,11.37
2023-04-28T17:52:17.492Z,10.77
2023-04-28T17:54:45.494Z,11.83
2023-04-28T17:57:13.819Z,12.53
2023-04-28T17:59:44.777Z,12.97
2023-04-28T18:02:12.997Z,12.67
2023-04-28T18:04:41.135Z,13.80
2023-04-28T18:07:09.277Z,14.60
2023-04-28T18:09:37.270Z,15.07
2023-04-28T18:12:06.924Z,14.40
2023-04-28T18:14:35.213Z,13.67
2023-04-28T18:17:04.555Z,13.37
2023-04-28T18:19:32.540Z,12.23
2023-04-28T18:22:00.525Z,12.20
2023-04-28T18:24:28.840Z,11.47
2023-04-28T18:26:56.837Z,11.30
2023-04-28T18:29:24.836Z,11.33
2023-04-28T18:31:52.921Z,11.27
2023-04-28T18:34:22.372Z,12.27
2023-04-28T18:36:50.569Z,11.33
2023-04-28T18:39:18.573Z,11.43
2023-04-28T18:41:46.597Z,10.27
2023-04-28T18:44:14.694Z,11.00
2023-04-28T18:46:42.747Z,10.23
2023-04-28T18:49:10.800Z,10.57
2023-04-28T18:51:40.258Z,10.50
2023-04-28T18:54:08.318Z,9.73
2023-04-28T18:56:36.409Z,9.43
2023-04-28T18:59:05.915Z,10.70
2023-04-28T19:01:34.061Z,10.87
2023-04-28T19:04:02.780Z,11.07
2023-04-28T19:06:32.083Z,10.53
2023-04-28T19:09:01.548Z,10.60
2023-04-28T19:11:30.458Z,10.43
2023-04-28T19:13:59.040Z,10.23
2023-04-28T19:16:27.122Z,9.93
2023-04-28T19:18:55.170Z,9.03
2023-04-28T19:21:23.580Z,9.00
2023-04-28T19:23:51.590Z,8.67
2023-04-28T19:26:21.046Z,9.20
2023-04-28T19:28:49.069Z,8.80
2023-04-28T19:31:17.101Z,9.20
2023-04-28T19:33:45.141Z,9.50
2023-04-28T19:36:13.584Z,9.20
2023-04-28T19:38:41.607Z,8.67
2023-04-28T19:41:09.618Z,9.13
2023-04-28T19:43:39.028Z,9.80
2023-04-28T19:46:08.169Z,9.37
2023-04-28T19:48:36.582Z,9.87
2023-04-28T19:51:04.624Z,9.77
2023-04-28T19:53:32.712Z,10.33
2023-04-28T19:56:01.964Z,10.23
2023-04-28T19:58:30.296Z,9.60
2023-04-28T20:00:59.754Z,10.10
2023-04-28T20:03:27.891Z,9.73
2023-04-28T20:05:56.306Z,10.10
2023-04-28T20:08:25.621Z,10.10
2023-04-28T20:10:54.836Z,9.80
2023-04-28T20:13:22.775Z,9.93
2023-04-28T20:15:50.776Z,9.37
2023-04-28T20:18:20.134Z,10.40
2023-04-28T20:20:48.074Z,10.43
2023-04-28T20:23:16.081Z,10.50
2023-04-28T20:25:44.064Z,10.67
2023-04-28T20:28:12.062Z,9.93
2023-04-28T20:30:41.916Z,10.60
2023-04-28T20:33:10.483Z,10.60
2023-04-28T20:35:40.187Z,9.93
2023-04-28T20:38:08.207Z,10.67
2023-04-28T20:40:37.001Z,9.97
2023-04-28T20:43:05.033Z,10.53
2023-04-28T20:45:34.510Z,9.73
2023-04-28T20:48:03.114Z,10.83
2023-04-28T20:50:33.347Z,9.80
2023-04-28T20:53:02.946Z,10.40
2023-04-28T20:55:31.085Z,10.23
2023-04-28T20:57:59.087Z,10.73
2023-04-28T21:00:27.118Z,11.37
2023-04-28T21:02:55.254Z,11.20
2023-04-28T21:05:24.063Z,11.67
2023-04-28T21:07:52.137Z,10.97
2023-04-28T21:10:21.524Z,10.90
2023-04-28T21:12:49.766Z,12.07
2023-04-28T21:15:18.040Z,11.00
2023-04-28T21:17:46.023Z,11.20
2023-04-28T21:20:14.706Z,11.23
2023-04-28T21:22:42.879Z,10.97
2023-04-28T21:25:11.065Z,11.20
2023-04-28T21:27:40.636Z,10.40
2023-04-28T21:30:10.266Z,11.27
2023-04-28T21:32:38.868Z,10.93
2023-04-28T21:35:07.628Z,10.80
2023-04-28T21:37:35.854Z,11.53
2023-04-28T21:40:05.151Z,10.77
2023-04-28T21:42:34.509Z,10.13
2023-04-28T21:45:04.063Z,10.37
2023-04-28T21:47:32.533Z,10.30
2023-04-28T21:50:00.562Z,10.30
2023-04-28T21:52:28.574Z,10.20
2023-04-28T21:54:56.933Z,10.47
2023-04-28T21:57:24.961Z,10.23
2023-04-28T21:59:53.135Z,10.30
2023-04-28T22:02:23.188Z,9.57
2023-04-28T22:04:51.576Z,11.03
2023-04-28T22:07:19.628Z,10.23
2023-04-28T22:09:47.620Z,10.53
2023-04-28T22:12:15.633Z,10.23
2023-04-28T22:14:43.616Z,11.00
2023-04-28T22:17:11.594Z,10.40
2023-04-28T22:19:40.968Z,10.13
2023-04-28T22:22:08.972Z,9.70
2023-04-28T22:24:37.121Z,9.60
2023-04-28T22:27:05.241Z,9.57
2023-04-28T22:29:33.245Z,10.27
2023-04-28T22:32:02.637Z,10.13
2023-04-28T22:34:30.780Z,10.03
2023-04-28T22:37:00.163Z,9.90
2023-04-28T22:39:28.185Z,10.10
2023-04-28T22:41:56.343Z,9.37
2023-04-28T22:44:24.472Z,9.33
2023-04-28T22:46:53.234Z,9.63
2023-04-28T22:49:24.792Z,9.23
2023-04-28T22:51:52.866Z,9.67
2023-04-28T22:54:22.321Z,9.63
2023-04-28T22:56:52.680Z,9.43
2023-04-28T22:59:22.120Z,8.67
2023-04-28T23:01:50.293Z,9.83
2023-04-28T23:04:20.329Z,9.43
2023-04-28T23:06:48.609Z,10.10
2023-04-28T23:09:16.695Z,9.77
2023-04-28T23:11:46.051Z,10.17
2023-04-28T23:14:14.229Z,10.47
2023-04-28T23:16:42.826Z,10.17
2023-04-28T23:19:10.817Z,10.43
2023-04-28T23:21:38.853Z,10.07
2023-04-28T23:24:07.388Z,9.77
2023-04-28T23:26:35.477Z,10.30
2023-04-28T23:29:04.820Z,10.40
2023-04-28T23:31:33.413Z,10.30
2023-04-28T23:34:02.299Z,9.73
2023-04-28T23:36:31.472Z,10.17
2023-04-28T23:38:59.442Z,10.53
2023-04-28T23:41:28.041Z,9.70
2023-04-28T23:43:56.693Z,10.57
2023-04-28T23:46:28.998Z,10.43
2023-04-28T23:48:57.295Z,10.37
2023-04-28T23:51:25.374Z,9.87
2023-04-28T23:53:53.686Z,10.10
2023-04-28T23:56:21.702Z,10.00
2023-04-28T23:58:49.799Z,9.87
